sensor_id;sensor_type;location;lat;lon;timestamp;temperature;humidity
51619;DHT22;38518;53.164;5.430;2023-11-21T00:02:14;10.00;99.90
51619;DHT22;38518;53.164;5.430;2023-11-21T00:04:39;10.10;99.90
51619;DHT22;38518;53.164;5.430;2023-11-21T00:07:05;10.00;99.90
51619;DHT22;38518;53.164;5.430;2023-11-21T00:09:32;10.00;99.90
51619;DHT22;38518;53.164;5.430;2023-11-21T00:11:58;9.50;99.90
51619;DHT22;38518;53.164;5.430;2023-11-21T00:14:25;10.00;99.90
51619;DHT22;38518;53.164;5.430;2023-11-21T00:16:50;10.00;99.90
51619;DHT22;38518;53.164;5.430;2023-11-21T00:19:16;10.00;99.90
51619;DHT22;38518;53.164;5.430;2023-11-21T00:21:42;10.00;99.90
51619;DHT22;38518;53.164;5.430;2023-11-21T00:24:11;10.00;99.90
51619;DHT22;38518;53.164;5.430;2023-11-21T00:26:42;10.00;99.90
51619;DHT22;38518;53.164;5.430;2023-11-21T00:29:07;9.90;99.90
51619;DHT22;38518;53.164;5.430;2023-11-21T00:31:34;9.90;99.90
51619;DHT22;38518;53.164;5.430;2023-11-21T00:34:02;9.90;99.90
51619;DHT22;38518;53.164;5.430;2023-11-21T00:36:29;9.90;99.90
51619;DHT22;38518;53.164;5.430;2023-11-21T00:38:54;9.90;99.90
51619;DHT22;38518;53.164;5.430;2023-11-21T00:41:21;9.90;99.90
51619;DHT22;38518;53.164;5.430;2023-11-21T00:43:47;10.00;99.90
51619;DHT22;38518;53.164;5.430;2023-11-21T00:46:12;10.00;99.90
51619;DHT22;38518;53.164;5.430;2023-11-21T00:48:39;10.00;99.90
51619;DHT22;38518;53.164;5.430;2023-11-21T00:51:05;10.00;99.90
51619;DHT22;38518;53.164;5.430;2023-11-21T00:53:32;10.00;99.90
51619;DHT22;38518;53.164;5.430;2023-11-21T00:55:57;10.00;99.90
51619;DHT22;38518;53.164;5.430;2023-11-21T00:58:26;10.00;99.90
51619;DHT22;38518;53.164;5.430;2023-11-21T01:00:52;10.00;99.90
51619;DHT22;38518;53.164;5.430;2023-11-21T01:03:18;10.00;99.90
51619;DHT22;38518;53.164;5.430;2023-11-21T01:05:45;10.00;99.90
51619;DHT22;38518;53.164;5.430;2023-11-21T01:08:11;10.00;99.90
51619;DHT22;38518;53.164;5.430;2023-11-21T01:10:37;10.00;99.90
51619;DHT22;38518;53.164;5.430;2023-11-21T01:13:03;10.10;99.90
51619;DHT22;38518;53.164;5.430;2023-11-21T01:15:30;10.00;99.90
51619;DHT22;38518;53.164;5.430;2023-11-21T01:17:56;10.00;99.90
51619;DHT22;38518;53.164;5.430;2023-11-21T01:20:22;10.10;99.90
51619;DHT22;38518;53.164;5.430;2023-11-21T01:22:47;10.10;99.90
51619;DHT22;38518;53.164;5.430;2023-11-21T01:25:14;10.10;99.90
51619;DHT22;38518;53.164;5.430;2023-11-21T01:27:42;10.10;99.90
51619;DHT22;38518;53.164;5.430;2023-11-21T01:30:09;10.10;99.90
51619;DHT22;38518;53.164;5.430;2023-11-21T01:32:36;10.10;99.90
51619;DHT22;38518;53.164;5.430;2023-11-21T01:35:03;10.20;99.90
51619;DHT22;38518;53.164;5.430;2023-11-21T01:37:31;10.20;99.90
51619;DHT22;38518;53.164;5.430;2023-11-21T01:39:56;10.20;99.90
51619;DHT22;38518;53.164;5.430;2023-11-21T01:42:22;10.20;99.90
51619;DHT22;38518;53.164;5.430;2023-11-21T01:44:48;10.20;99.90
51619;DHT22;38518;53.164;5.430;2023-11-21T01:47:14;10.20;99.90
51619;DHT22;38518;53.164;5.430;2023-11-21T01:49:44;10.20;99.90
51619;DHT22;38518;53.164;5.430;2023-11-21T01:52:11;10.20;99.90
51619;DHT22;38518;53.164;5.430;2023-11-21T01:54:37;10.20;99.90
51619;DHT22;38518;53.164;5.430;2023-11-21T01:57:04;9.30;99.90
51619;DHT22;38518;53.164;5.430;2023-11-21T01:59:36;10.20;99.90
51619;DHT22;38518;53.164;5.430;2023-11-21T02:02:06;10.30;99.90
51619;DHT22;38518;53.164;5.430;2023-11-21T02:04:36;10.20;99.90
51619;DHT22;38518;53.164;5.430;2023-11-21T02:07:02;10.20;99.90
51619;DHT22;38518;53.164;5.430;2023-11-21T02:09:31;10.20;99.90
51619;DHT22;38518;53.164;5.430;2023-11-21T02:12:00;10.20;99.90
51619;DHT22;38518;53.164;5.430;2023-11-21T02:14:27;10.20;99.90
51619;DHT22;38518;53.164;5.430;2023-11-21T02:16:54;10.10;99.90
51619;DHT22;38518;53.164;5.430;2023-11-21T02:19:22;10.10;99.90
51619;DHT22;38518;53.164;5.430;2023-11-21T02:21:56;10.10;99.90
51619;DHT22;38518;53.164;5.430;2023-11-21T02:24:25;10.10;99.90
51619;DHT22;38518;53.164;5.430;2023-11-21T02:26:51;10.10;99.90
51619;DHT22;38518;53.164;5.430;2023-11-21T02:29:20;10.10;99.90
51619;DHT22;38518;53.164;5.430;2023-11-21T02:31:54;10.10;99.90
51619;DHT22;38518;53.164;5.430;2023-11-21T02:34:21;10.10;99.90
51619;DHT22;38518;53.164;5.430;2023-11-21T02:36:47;10.00;99.90
51619;DHT22;38518;53.164;5.430;2023-11-21T02:39:15;10.10;99.90
51619;DHT22;38518;53.164;5.430;2023-11-21T02:41:43;10.00;99.90
51619;DHT22;38518;53.164;5.430;2023-11-21T02:44:09;10.00;99.90
51619;DHT22;38518;53.164;5.430;2023-11-21T02:46:36;10.00;99.90
51619;DHT22;38518;53.164;5.430;2023-11-21T02:49:03;10.00;99.90
51619;DHT22;38518;53.164;5.430;2023-11-21T02:51:30;10.00;99.90
51619;DHT22;38518;53.164;5.430;2023-11-21T02:53:56;10.00;99.90
51619;DHT22;38518;53.164;5.430;2023-11-21T02:56:26;10.00;99.90
51619;DHT22;38518;53.164;5.430;2023-11-21T02:58:55;9.90;99.90
51619;DHT22;38518;53.164;5.430;2023-11-21T03:01:20;10.00;99.90
51619;DHT22;38518;53.164;5.430;2023-11-21T03:03:46;9.90;99.90
51619;DHT22;38518;53.164;5.430;2023-11-21T03:06:17;10.00;99.90
51619;DHT22;38518;53.164;5.430;2023-11-21T03:08:43;10.00;99.90
51619;DHT22;38518;53.164;5.430;2023-11-21T03:11:08;9.30;99.90
51619;DHT22;38518;53.164;5.430;2023-11-21T03:13:34;9.90;99.90
51619;DHT22;38518;53.164;5.430;2023-11-21T03:16:00;9.90;99.90
51619;DHT22;38518;53.164;5.430;2023-11-21T03:18:25;10.00;99.90
51619;DHT22;38518;53.164;5.430;2023-11-21T03:20:52;9.90;99.90
51619;DHT22;38518;53.164;5.430;2023-11-21T03:23:18;9.90;99.90
51619;DHT22;38518;53.164;5.430;2023-11-21T03:25:45;9.90;99.90
51619;DHT22;38518;53.164;5.430;2023-11-21T03:28:10;9.90;99.90
51619;DHT22;38518;53.164;5.430;2023-11-21T03:30:36;9.90;99.90
51619;DHT22;38518;53.164;5.430;2023-11-21T03:33:02;10.00;99.90
51619;DHT22;38518;53.164;5.430;2023-11-21T03:35:28;9.90;99.90
51619;DHT22;38518;53.164;5.430;2023-11-21T03:37:53;10.00;99.90
51619;DHT22;38518;53.164;5.430;2023-11-21T03:40:19;10.00;99.90
51619;DHT22;38518;53.164;5.430;2023-11-21T03:42:46;10.00;99.90
51619;DHT22;38518;53.164;5.430;2023-11-21T03:45:12;10.00;99.90
51619;DHT22;38518;53.164;5.430;2023-11-21T03:47:41;10.00;99.90
51619;DHT22;38518;53.164;5.430;2023-11-21T03:50:07;10.00;99.90
51619;DHT22;38518;53.164;5.430;2023-11-21T03:52:35;10.00;99.90
51619;DHT22;38518;53.164;5.430;2023-11-21T03:55:01;10.00;99.90
51619;DHT22;38518;53.164;5.430;2023-11-21T03:57:27;10.00;99.90
51619;DHT22;38518;53.164;5.430;2023-11-21T03:59:53;10.00;99.90
51619;DHT22;38518;53.164;5.430;2023-11-21T04:02:19;10.00;99.90
51619;DHT22;38518;53.164;5.430;2023-11-21T04:04:45;10.00;99.90
51619;DHT22;38518;53.164;5.430;2023-11-21T04:07:11;10.00;99.90
51619;DHT22;38518;53.164;5.430;2023-11-21T04:09:39;10.00;99.90
51619;DHT22;38518;53.164;5.430;2023-11-21T04:12:07;9.90;99.90
51619;DHT22;38518;53.164;5.430;2023-11-21T04:14:34;10.00;99.90
51619;DHT22;38518;53.164;5.430;2023-11-21T04:17:00;9.90;99.90
51619;DHT22;38518;53.164;5.430;2023-11-21T04:19:25;9.90;99.90
51619;DHT22;38518;53.164;5.430;2023-11-21T04:21:51;9.90;99.90
51619;DHT22;38518;53.164;5.430;2023-11-21T04:24:17;9.90;99.90
51619;DHT22;38518;53.164;5.430;2023-11-21T04:26:44;9.90;99.90
51619;DHT22;38518;53.164;5.430;2023-11-21T04:29:09;9.80;99.90
51619;DHT22;38518;53.164;5.430;2023-11-21T04:31:35;9.80;99.90
51619;DHT22;38518;53.164;5.430;2023-11-21T04:34:01;9.80;99.90
51619;DHT22;38518;53.164;5.430;2023-11-21T04:36:26;9.80;99.90
51619;DHT22;38518;53.164;5.430;2023-11-21T04:38:52;9.80;99.90
51619;DHT22;38518;53.164;5.430;2023-11-21T04:41:18;9.80;99.90
51619;DHT22;38518;53.164;5.430;2023-11-21T04:43:43;9.80;99.90
51619;DHT22;38518;53.164;5.430;2023-11-21T04:46:09;9.80;99.90
51619;DHT22;38518;53.164;5.430;2023-11-21T04:48:35;9.80;99.90
51619;DHT22;38518;53.164;5.430;2023-11-21T04:51:00;9.80;99.90
51619;DHT22;38518;53.164;5.430;2023-11-21T04:53:26;9.80;99.90
51619;DHT22;38518;53.164;5.430;2023-11-21T04:55:52;9.80;99.90
51619;DHT22;38518;53.164;5.430;2023-11-21T04:58:18;9.80;99.90
51619;DHT22;38518;53.164;5.430;2023-11-21T05:00:44;9.90;99.90
51619;DHT22;38518;53.164;5.430;2023-11-21T05:03:10;9.80;99.90
51619;DHT22;38518;53.164;5.430;2023-11-21T05:05:36;9.80;99.90
51619;DHT22;38518;53.164;5.430;2023-11-21T05:08:02;9.80;99.90
51619;DHT22;38518;53.164;5.430;2023-11-21T05:10:28;9.80;99.90
51619;DHT22;38518;53.164;5.430;2023-11-21T05:12:54;9.80;99.90
51619;DHT22;38518;53.164;5.430;2023-11-21T05:15:21;9.70;99.90
51619;DHT22;38518;53.164;5.430;2023-11-21T05:17:47;9.70;99.90
51619;DHT22;38518;53.164;5.430;2023-11-21T05:20:16;9.70;99.90
51619;DHT22;38518;53.164;5.430;2023-11-21T05:22:49;9.60;99.90
51619;DHT22;38518;53.164;5.430;2023-11-21T05:25:15;9.60;99.90
51619;DHT22;38518;53.164;5.430;2023-11-21T05:27:44;9.60;99.90
51619;DHT22;38518;53.164;5.430;2023-11-21T05:30:10;9.60;99.90
51619;DHT22;38518;53.164;5.430;2023-11-21T05:32:38;9.60;99.90
51619;DHT22;38518;53.164;5.430;2023-11-21T05:35:04;9.60;99.90
51619;DHT22;38518;53.164;5.430;2023-11-21T05:37:35;9.60;99.90
51619;DHT22;38518;53.164;5.430;2023-11-21T05:40:01;9.60;99.90
51619;DHT22;38518;53.164;5.430;2023-11-21T05:42:32;9.50;99.90
51619;DHT22;38518;53.164;5.430;2023-11-21T05:44:58;8.90;99.90
51619;DHT22;38518;53.164;5.430;2023-11-21T05:47:40;9.50;99.90
51619;DHT22;38518;53.164;5.430;2023-11-21T05:50:07;9.50;99.90
51619;DHT22;38518;53.164;5.430;2023-11-21T05:52:36;9.50;99.90
51619;DHT22;38518;53.164;5.430;2023-11-21T05:55:03;9.40;99.90
51619;DHT22;38518;53.164;5.430;2023-11-21T05:57:42;9.40;99.90
51619;DHT22;38518;53.164;5.430;2023-11-21T06:00:10;9.40;99.90
51619;DHT22;38518;53.164;5.430;2023-11-21T06:02:38;9.40;99.90
51619;DHT22;38518;53.164;5.430;2023-11-21T06:05:05;9.40;99.90
51619;DHT22;38518;53.164;5.430;2023-11-21T06:07:31;9.40;99.90
51619;DHT22;38518;53.164;5.430;2023-11-21T06:09:57;9.40;99.90
51619;DHT22;38518;53.164;5.430;2023-11-21T06:12:23;9.40;99.90
51619;DHT22;38518;53.164;5.430;2023-11-21T06:14:48;9.40;99.90
51619;DHT22;38518;53.164;5.430;2023-11-21T06:17:14;9.40;99.90
51619;DHT22;38518;53.164;5.430;2023-11-21T06:19:40;9.40;99.90
51619;DHT22;38518;53.164;5.430;2023-11-21T06:22:05;9.40;99.90
51619;DHT22;38518;53.164;5.430;2023-11-21T06:24:31;9.40;99.90
51619;DHT22;38518;53.164;5.430;2023-11-21T06:26:57;8.30;99.90
51619;DHT22;38518;53.164;5.430;2023-11-21T06:29:23;9.40;99.90
51619;DHT22;38518;53.164;5.430;2023-11-21T06:31:49;9.40;99.90
51619;DHT22;38518;53.164;5.430;2023-11-21T06:34:15;9.40;99.90
51619;DHT22;38518;53.164;5.430;2023-11-21T06:36:40;9.40;99.90
51619;DHT22;38518;53.164;5.430;2023-11-21T06:39:06;9.40;99.90
51619;DHT22;38518;53.164;5.430;2023-11-21T06:41:34;9.30;99.90
51619;DHT22;38518;53.164;5.430;2023-11-21T06:43:59;9.30;99.90
51619;DHT22;38518;53.164;5.430;2023-11-21T06:46:25;9.40;99.90
51619;DHT22;38518;53.164;5.430;2023-11-21T06:48:51;9.30;99.90
51619;DHT22;38518;53.164;5.430;2023-11-21T06:51:16;9.30;99.90
51619;DHT22;38518;53.164;5.430;2023-11-21T06:53:43;9.30;99.90
51619;DHT22;38518;53.164;5.430;2023-11-21T06:56:18;9.30;99.90
51619;DHT22;38518;53.164;5.430;2023-11-21T06:58:45;9.20;99.90
51619;DHT22;38518;53.164;5.430;2023-11-21T07:01:14;9.20;99.90
51619;DHT22;38518;53.164;5.430;2023-11-21T07:03:41;9.20;99.90
51619;DHT22;38518;53.164;5.430;2023-11-21T07:06:07;9.30;99.90
51619;DHT22;38518;53.164;5.430;2023-11-21T07:08:33;9.20;99.90
51619;DHT22;38518;53.164;5.430;2023-11-21T07:10:59;9.30;99.90
51619;DHT22;38518;53.164;5.430;2023-11-21T07:13:25;9.30;99.90
51619;DHT22;38518;53.164;5.430;2023-11-21T07:15:51;9.20;99.90
51619;DHT22;38518;53.164;5.430;2023-11-21T07:18:17;9.20;99.90
51619;DHT22;38518;53.164;5.430;2023-11-21T07:20:43;9.20;99.90
51619;DHT22;38518;53.164;5.430;2023-11-21T07:23:09;9.20;99.90
51619;DHT22;38518;53.164;5.430;2023-11-21T07:25:36;9.20;99.90
51619;DHT22;38518;53.164;5.430;2023-11-21T07:28:01;9.20;99.90
51619;DHT22;38518;53.164;5.430;2023-11-21T07:30:27;9.20;99.90
51619;DHT22;38518;53.164;5.430;2023-11-21T07:32:53;9.20;99.90
51619;DHT22;38518;53.164;5.430;2023-11-21T07:35:19;9.20;99.90
51619;DHT22;38518;53.164;5.430;2023-11-21T07:37:44;9.20;99.90
51619;DHT22;38518;53.164;5.430;2023-11-21T07:40:10;9.20;99.90
51619;DHT22;38518;53.164;5.430;2023-11-21T07:42:37;9.20;99.90
51619;DHT22;38518;53.164;5.430;2023-11-21T07:45:04;9.20;99.90
51619;DHT22;38518;53.164;5.430;2023-11-21T07:47:30;9.20;99.90
51619;DHT22;38518;53.164;5.430;2023-11-21T07:50:00;9.30;99.90
51619;DHT22;38518;53.164;5.430;2023-11-21T07:52:28;9.30;99.90
51619;DHT22;38518;53.164;5.430;2023-11-21T07:54:54;9.20;99.90
51619;DHT22;38518;53.164;5.430;2023-11-21T07:57:19;9.20;99.90
51619;DHT22;38518;53.164;5.430;2023-11-21T07:59:45;9.20;99.90
51619;DHT22;38518;53.164;5.430;2023-11-21T08:02:11;9.30;99.90
51619;DHT22;38518;53.164;5.430;2023-11-21T08:04:36;9.20;99.90
51619;DHT22;38518;53.164;5.430;2023-11-21T08:07:02;9.30;99.90
51619;DHT22;38518;53.164;5.430;2023-11-21T08:09:29;9.30;99.90
51619;DHT22;38518;53.164;5.430;2023-11-21T08:11:55;9.20;99.90
51619;DHT22;38518;53.164;5.430;2023-11-21T08:14:22;9.20;99.90
51619;DHT22;38518;53.164;5.430;2023-11-21T08:16:51;9.20;99.90
51619;DHT22;38518;53.164;5.430;2023-11-21T08:19:17;9.20;99.90
51619;DHT22;38518;53.164;5.430;2023-11-21T08:21:44;9.20;99.90
51619;DHT22;38518;53.164;5.430;2023-11-21T08:24:11;9.30;99.90
51619;DHT22;38518;53.164;5.430;2023-11-21T08:26:37;9.20;99.90
51619;DHT22;38518;53.164;5.430;2023-11-21T08:29:03;9.30;99.90
51619;DHT22;38518;53.164;5.430;2023-11-21T08:31:29;9.30;99.90
51619;DHT22;38518;53.164;5.430;2023-11-21T08:33:55;9.40;99.90
51619;DHT22;38518;53.164;5.430;2023-11-21T08:36:21;9.40;99.90
51619;DHT22;38518;53.164;5.430;2023-11-21T08:38:49;9.40;99.90
51619;DHT22;38518;53.164;5.430;2023-11-21T08:41:18;9.40;99.90
51619;DHT22;38518;53.164;5.430;2023-11-21T08:43:47;9.40;99.90
51619;DHT22;38518;53.164;5.430;2023-11-21T08:46:13;9.50;99.90
51619;DHT22;38518;53.164;5.430;2023-11-21T08:48:40;9.50;99.90
51619;DHT22;38518;53.164;5.430;2023-11-21T08:51:06;9.60;99.90
51619;DHT22;38518;53.164;5.430;2023-11-21T08:53:32;9.60;99.90
51619;DHT22;38518;53.164;5.430;2023-11-21T08:55:58;9.60;99.90
51619;DHT22;38518;53.164;5.430;2023-11-21T08:58:24;9.60;99.90
51619;DHT22;38518;53.164;5.430;2023-11-21T09:00:50;9.70;99.90
51619;DHT22;38518;53.164;5.430;2023-11-21T09:03:15;9.70;99.90
51619;DHT22;38518;53.164;5.430;2023-11-21T09:05:41;9.80;99.90
51619;DHT22;38518;53.164;5.430;2023-11-21T09:08:07;9.80;99.90
51619;DHT22;38518;53.164;5.430;2023-11-21T09:10:33;9.90;99.90
51619;DHT22;38518;53.164;5.430;2023-11-21T09:13:01;9.90;99.90
51619;DHT22;38518;53.164;5.430;2023-11-21T09:15:27;10.00;99.90
51619;DHT22;38518;53.164;5.430;2023-11-21T09:17:53;9.90;99.90
51619;DHT22;38518;53.164;5.430;2023-11-21T09:20:19;10.00;99.90
51619;DHT22;38518;53.164;5.430;2023-11-21T09:22:48;10.00;99.90
51619;DHT22;38518;53.164;5.430;2023-11-21T09:25:15;9.90;99.90
51619;DHT22;38518;53.164;5.430;2023-11-21T09:27:41;9.90;99.90
51619;DHT22;38518;53.164;5.430;2023-11-21T09:30:07;9.90;99.90
51619;DHT22;38518;53.164;5.430;2023-11-21T09:32:37;9.90;99.90
51619;DHT22;38518;53.164;5.430;2023-11-21T09:35:06;9.90;99.90
51619;DHT22;38518;53.164;5.430;2023-11-21T09:37:35;9.90;99.90
51619;DHT22;38518;53.164;5.430;2023-11-21T09:40:04;9.90;99.90
51619;DHT22;38518;53.164;5.430;2023-11-21T09:42:36;9.90;99.90
51619;DHT22;38518;53.164;5.430;2023-11-21T09:45:24;9.90;99.90
51619;DHT22;38518;53.164;5.430;2023-11-21T09:47:53;9.80;99.90
51619;DHT22;38518;53.164;5.430;2023-11-21T09:50:21;9.80;99.90
51619;DHT22;38518;53.164;5.430;2023-11-21T09:53:18;9.80;99.90
51619;DHT22;38518;53.164;5.430;2023-11-21T09:55:51;9.70;99.90
51619;DHT22;38518;53.164;5.430;2023-11-21T09:58:18;9.60;99.60
51619;DHT22;38518;53.164;5.430;2023-11-21T10:00:47;9.60;98.50
51619;DHT22;38518;53.164;5.430;2023-11-21T10:03:13;9.50;99.60
51619;DHT22;38518;53.164;5.430;2023-11-21T10:05:41;9.60;98.80
51619;DHT22;38518;53.164;5.430;2023-11-21T10:08:08;9.60;99.40
51619;DHT22;38518;53.164;5.430;2023-11-21T10:10:39;9.60;98.50
51619;DHT22;38518;53.164;5.430;2023-11-21T10:13:11;9.70;98.90
51619;DHT22;38518;53.164;5.430;2023-11-21T10:15:38;9.80;99.90
51619;DHT22;38518;53.164;5.430;2023-11-21T10:18:04;9.80;99.40
51619;DHT22;38518;53.164;5.430;2023-11-21T10:20:34;9.80;96.80
51619;DHT22;38518;53.164;5.430;2023-11-21T10:23:00;9.80;93.30
51619;DHT22;38518;53.164;5.430;2023-11-21T10:25:30;9.90;95.20
51619;DHT22;38518;53.164;5.430;2023-11-21T10:28:01;9.80;87.70
51619;DHT22;38518;53.164;5.430;2023-11-21T10:30:34;9.90;81.80
51619;DHT22;38518;53.164;5.430;2023-11-21T10:33:04;10.00;78.30
51619;DHT22;38518;53.164;5.430;2023-11-21T10:35:48;10.20;77.00
51619;DHT22;38518;53.164;5.430;2023-11-21T10:38:17;10.30;72.10
51619;DHT22;38518;53.164;5.430;2023-11-21T10:40:44;10.50;64.80
51619;DHT22;38518;53.164;5.430;2023-11-21T10:43:11;10.50;54.40
51619;DHT22;38518;53.164;5.430;2023-11-21T10:45:39;10.50;38.50
51619;DHT22;38518;53.164;5.430;2023-11-21T10:48:09;10.60;36.50
51619;DHT22;38518;53.164;5.430;2023-11-21T10:50:41;10.60;28.60
51619;DHT22;38518;53.164;5.430;2023-11-21T10:53:07;10.00;22.60
51619;DHT22;38518;53.164;5.430;2023-11-21T10:55:33;11.20;27.00
51619;DHT22;38518;53.164;5.430;2023-11-21T10:58:02;11.80;28.50
51619;DHT22;38518;53.164;5.430;2023-11-21T11:00:30;12.30;17.10
51619;DHT22;38518;53.164;5.430;2023-11-21T11:02:56;13.00;4.20
51619;DHT22;38518;53.164;5.430;2023-11-21T11:05:25;13.60;2.70
51619;DHT22;38518;53.164;5.430;2023-11-21T11:08:04;13.60;1.00
51619;DHT22;38518;53.164;5.430;2023-11-21T11:10:30;13.80;1.00
51619;DHT22;38518;53.164;5.430;2023-11-21T11:12:56;13.70;1.00
51619;DHT22;38518;53.164;5.430;2023-11-21T11:15:26;13.30;1.00
51619;DHT22;38518;53.164;5.430;2023-11-21T11:17:53;13.00;1.00
51619;DHT22;38518;53.164;5.430;2023-11-21T11:20:45;12.60;1.00
51619;DHT22;38518;53.164;5.430;2023-11-21T11:28:15;12.40;1.00
51619;DHT22;38518;53.164;5.430;2023-11-21T11:33:53;12.10;1.00
51619;DHT22;38518;53.164;5.430;2023-11-21T11:36:31;12.00;1.00
51619;DHT22;38518;53.164;5.430;2023-11-21T11:38:59;11.90;1.00
51619;DHT22;38518;53.164;5.430;2023-11-21T11:41:30;11.80;1.00
51619;DHT22;38518;53.164;5.430;2023-11-21T11:43:58;11.70;1.00
51619;DHT22;38518;53.164;5.430;2023-11-21T11:46:44;12.10;1.00
51619;DHT22;38518;53.164;5.430;2023-11-21T11:49:27;12.70;1.00
51619;DHT22;38518;53.164;5.430;2023-11-21T11:54:56;13.80;1.00
51619;DHT22;38518;53.164;5.430;2023-11-21T11:57:25;14.30;1.00
51619;DHT22;38518;53.164;5.430;2023-11-21T12:00:13;14.90;1.00
51619;DHT22;38518;53.164;5.430;2023-11-21T12:02:49;15.50;1.00
51619;DHT22;38518;53.164;5.430;2023-11-21T12:05:19;16.20;1.00
51619;DHT22;38518;53.164;5.430;2023-11-21T12:10:21;15.70;1.00
51619;DHT22;38518;53.164;5.430;2023-11-21T12:12:49;15.40;1.00
51619;DHT22;38518;53.164;5.430;2023-11-21T12:15:16;14.90;1.00
51619;DHT22;38518;53.164;5.430;2023-11-21T12:17:43;14.50;1.00
51619;DHT22;38518;53.164;5.430;2023-11-21T12:20:10;13.90;1.00
51619;DHT22;38518;53.164;5.430;2023-11-21T12:22:46;13.30;1.00
51619;DHT22;38518;53.164;5.430;2023-11-21T12:25:14;12.90;1.00
51619;DHT22;38518;53.164;5.430;2023-11-21T12:27:42;12.60;1.00
51619;DHT22;38518;53.164;5.430;2023-11-21T12:30:09;12.20;1.00
51619;DHT22;38518;53.164;5.430;2023-11-21T12:32:39;11.90;1.00
51619;DHT22;38518;53.164;5.430;2023-11-21T12:35:08;11.60;1.00
51619;DHT22;38518;53.164;5.430;2023-11-21T12:37:36;11.20;1.00
51619;DHT22;38518;53.164;5.430;2023-11-21T12:40:03;10.90;1.00
51619;DHT22;38518;53.164;5.430;2023-11-21T12:42:29;10.70;1.00
51619;DHT22;38518;53.164;5.430;2023-11-21T12:45:18;10.60;1.00
51619;DHT22;38518;53.164;5.430;2023-11-21T12:47:46;10.70;1.00
51619;DHT22;38518;53.164;5.430;2023-11-21T12:50:12;11.00;1.00
51619;DHT22;38518;53.164;5.430;2023-11-21T12:52:45;11.20;1.00
51619;DHT22;38518;53.164;5.430;2023-11-21T12:55:17;11.00;1.00
51619;DHT22;38518;53.164;5.430;2023-11-21T12:57:44;11.00;1.00
51619;DHT22;38518;53.164;5.430;2023-11-21T13:00:12;10.80;1.00
51619;DHT22;38518;53.164;5.430;2023-11-21T13:02:51;10.70;1.00
51619;DHT22;38518;53.164;5.430;2023-11-21T13:07:52;10.40;1.00
51619;DHT22;38518;53.164;5.430;2023-11-21T13:10:25;10.50;1.00
51619;DHT22;38518;53.164;5.430;2023-11-21T13:12:55;11.10;1.00
51619;DHT22;38518;53.164;5.430;2023-11-21T13:15:27;11.60;1.00
51619;DHT22;38518;53.164;5.430;2023-11-21T13:17:53;11.60;1.00
51619;DHT22;38518;53.164;5.430;2023-11-21T13:20:19;11.40;1.00
51619;DHT22;38518;53.164;5.430;2023-11-21T13:22:52;11.20;1.00
51619;DHT22;38518;53.164;5.430;2023-11-21T13:25:23;11.00;1.00
51619;DHT22;38518;53.164;5.430;2023-11-21T13:27:49;10.80;1.00
51619;DHT22;38518;53.164;5.430;2023-11-21T13:30:15;10.70;1.00
51619;DHT22;38518;53.164;5.430;2023-11-21T13:32:45;10.60;1.00
51619;DHT22;38518;53.164;5.430;2023-11-21T13:35:12;10.60;1.00
51619;DHT22;38518;53.164;5.430;2023-11-21T13:37:51;10.50;1.00
51619;DHT22;38518;53.164;5.430;2023-11-21T13:40:22;10.40;1.00
51619;DHT22;38518;53.164;5.430;2023-11-21T13:42:53;10.50;1.00
51619;DHT22;38518;53.164;5.430;2023-11-21T13:45:22;10.50;1.00
51619;DHT22;38518;53.164;5.430;2023-11-21T13:47:49;10.50;1.00
51619;DHT22;38518;53.164;5.430;2023-11-21T13:50:18;10.50;1.00
51619;DHT22;38518;53.164;5.430;2023-11-21T13:52:49;10.30;1.00
51619;DHT22;38518;53.164;5.430;2023-11-21T13:55:17;10.20;1.00
51619;DHT22;38518;53.164;5.430;2023-11-21T13:57:43;10.10;1.00
51619;DHT22;38518;53.164;5.430;2023-11-21T14:00:12;10.10;1.00
51619;DHT22;38518;53.164;5.430;2023-11-21T14:02:58;10.00;1.00
51619;DHT22;38518;53.164;5.430;2023-11-21T14:05:31;10.00;1.00
51619;DHT22;38518;53.164;5.430;2023-11-21T14:07:59;10.00;1.00
51619;DHT22;38518;53.164;5.430;2023-11-21T14:10:29;9.90;1.00
51619;DHT22;38518;53.164;5.430;2023-11-21T14:13:05;9.90;1.00
51619;DHT22;38518;53.164;5.430;2023-11-21T14:15:31;9.80;1.00
51619;DHT22;38518;53.164;5.430;2023-11-21T14:17:59;9.60;1.00
51619;DHT22;38518;53.164;5.430;2023-11-21T14:20:28;9.40;1.00
51619;DHT22;38518;53.164;5.430;2023-11-21T14:22:54;9.30;1.00
51619;DHT22;38518;53.164;5.430;2023-11-21T14:25:20;9.30;1.00
51619;DHT22;38518;53.164;5.430;2023-11-21T14:27:48;9.30;1.00
51619;DHT22;38518;53.164;5.430;2023-11-21T14:30:13;9.50;1.00
51619;DHT22;38518;53.164;5.430;2023-11-21T14:32:43;9.60;1.00
51619;DHT22;38518;53.164;5.430;2023-11-21T14:35:08;9.60;1.00
51619;DHT22;38518;53.164;5.430;2023-11-21T14:37:34;9.60;1.00
51619;DHT22;38518;53.164;5.430;2023-11-21T14:40:00;9.60;1.00
51619;DHT22;38518;53.164;5.430;2023-11-21T14:42:26;9.50;1.00
51619;DHT22;38518;53.164;5.430;2023-11-21T14:44:54;9.40;1.00
51619;DHT22;38518;53.164;5.430;2023-11-21T14:47:25;9.30;1.00
51619;DHT22;38518;53.164;5.430;2023-11-21T14:49:52;9.20;1.00
51619;DHT22;38518;53.164;5.430;2023-11-21T14:52:22;9.20;1.00
51619;DHT22;38518;53.164;5.430;2023-11-21T14:55:04;9.20;1.00
51619;DHT22;38518;53.164;5.430;2023-11-21T14:57:48;9.00;1.00
51619;DHT22;38518;53.164;5.430;2023-11-21T15:00:17;9.00;1.00
51619;DHT22;38518;53.164;5.430;2023-11-21T15:02:58;8.90;1.00
51619;DHT22;38518;53.164;5.430;2023-11-21T15:05:24;8.80;1.00
51619;DHT22;38518;53.164;5.430;2023-11-21T15:07:55;8.70;1.00
51619;DHT22;38518;53.164;5.430;2023-11-21T15:10:24;8.70;1.00
51619;DHT22;38518;53.164;5.430;2023-11-21T15:13:03;8.70;1.00
51619;DHT22;38518;53.164;5.430;2023-11-21T15:15:29;8.70;1.00
51619;DHT22;38518;53.164;5.430;2023-11-21T15:17:57;8.60;1.00
51619;DHT22;38518;53.164;5.430;2023-11-21T15:20:23;8.40;1.00
51619;DHT22;38518;53.164;5.430;2023-11-21T15:22:48;8.30;1.00
51619;DHT22;38518;53.164;5.430;2023-11-21T15:25:14;8.20;1.00
51619;DHT22;38518;53.164;5.430;2023-11-21T15:27:40;8.10;1.00
51619;DHT22;38518;53.164;5.430;2023-11-21T15:30:07;8.10;1.00
51619;DHT22;38518;53.164;5.430;2023-11-21T15:32:32;7.90;1.00
51619;DHT22;38518;53.164;5.430;2023-11-21T15:34:58;7.80;1.00
51619;DHT22;38518;53.164;5.430;2023-11-21T15:37:24;7.10;1.00
51619;DHT22;38518;53.164;5.430;2023-11-21T15:39:53;7.60;1.00
51619;DHT22;38518;53.164;5.430;2023-11-21T15:42:18;7.50;1.00
51619;DHT22;38518;53.164;5.430;2023-11-21T15:44:45;7.40;1.00
51619;DHT22;38518;53.164;5.430;2023-11-21T15:47:10;7.40;1.00
51619;DHT22;38518;53.164;5.430;2023-11-21T15:49:36;7.30;1.00
51619;DHT22;38518;53.164;5.430;2023-11-21T15:52:04;7.30;1.00
51619;DHT22;38518;53.164;5.430;2023-11-21T15:54:32;7.20;1.00
51619;DHT22;38518;53.164;5.430;2023-11-21T15:57:00;7.20;1.00
51619;DHT22;38518;53.164;5.430;2023-11-21T15:59:26;7.10;1.00
51619;DHT22;38518;53.164;5.430;2023-11-21T16:01:57;7.00;1.00
51619;DHT22;38518;53.164;5.430;2023-11-21T16:04:23;7.10;1.00
51619;DHT22;38518;53.164;5.430;2023-11-21T16:06:54;6.90;1.00